sensor_id;sensor_type;location;lat;lon;timestamp;P1;durP1;ratioP1;P2;durP2;ratioP2
5967;SDS011;3010;51.028;4.170;2022-11-12T00:00:37;54.08;;;38.15;;
5967;SDS011;3010;51.028;4.170;2022-11-12T00:03:04;44.30;;;31.83;;
5967;SDS011;3010;51.028;4.170;2022-11-12T00:05:31;51.90;;;33.00;;
5967;SDS011;3010;51.028;4.170;2022-11-12T00:07:58;79.27;;;43.03;;
5967;SDS011;3010;51.028;4.170;2022-11-12T00:10:24;71.70;;;40.87;;
5967;SDS011;3010;51.028;4.170;2022-11-12T00:12:51;79.63;;;42.13;;
5967;SDS011;3010;51.028;4.170;2022-11-12T00:15:17;75.50;;;40.93;;
5967;SDS011;3010;51.028;4.170;2022-11-12T00:17:44;75.60;;;47.75;;
5967;SDS011;3010;51.028;4.170;2022-11-12T00:20:10;52.90;;;32.63;;
5967;SDS011;3010;51.028;4.170;2022-11-12T00:22:37;35.87;;;25.77;;
5967;SDS011;3010;51.028;4.170;2022-11-12T00:25:04;35.93;;;25.10;;
5967;SDS011;3010;51.028;4.170;2022-11-12T00:27:31;33.87;;;22.93;;
5967;SDS011;3010;51.028;4.170;2022-11-12T00:29:57;37.37;;;26.10;;
5967;SDS011;3010;51.028;4.170;2022-11-12T00:32:23;45.57;;;28.83;;
5967;SDS011;3010;51.028;4.170;2022-11-12T00:34:50;44.37;;;29.50;;
5967;SDS011;3010;51.028;4.170;2022-11-12T00:37:16;46.47;;;29.43;;
5967;SDS011;3010;51.028;4.170;2022-11-12T00:39:43;57.87;;;34.17;;
5967;SDS011;3010;51.028;4.170;2022-11-12T00:42:10;64.07;;;36.03;;
5967;SDS011;3010;51.028;4.170;2022-11-12T00:44:36;60.10;;;33.90;;
5967;SDS011;3010;51.028;4.170;2022-11-12T00:47:03;43.00;;;28.40;;
5967;SDS011;3010;51.028;4.170;2022-11-12T00:49:29;49.93;;;31.17;;
5967;SDS011;3010;51.028;4.170;2022-11-12T00:51:56;47.00;;;29.30;;
5967;SDS011;3010;51.028;4.170;2022-11-12T00:54:23;47.78;;;35.05;;
5967;SDS011;3010;51.028;4.170;2022-11-12T00:56:49;45.60;;;34.10;;
5967;SDS011;3010;51.028;4.170;2022-11-12T00:59:16;32.40;;;24.77;;
5967;SDS011;3010;51.028;4.170;2022-11-12T01:01:42;37.97;;;25.73;;
5967;SDS011;3010;51.028;4.170;2022-11-12T01:04:09;34.03;;;23.50;;
5967;SDS011;3010;51.028;4.170;2022-11-12T01:06:37;28.40;;;21.13;;
5967;SDS011;3010;51.028;4.170;2022-11-12T01:09:02;33.17;;;25.67;;
5967;SDS011;3010;51.028;4.170;2022-11-12T01:11:29;31.83;;;26.05;;
5967;SDS011;3010;51.028;4.170;2022-11-12T01:13:56;28.40;;;21.77;;
5967;SDS011;3010;51.028;4.170;2022-11-12T01:16:23;30.15;;;25.55;;
5967;SDS011;3010;51.028;4.170;2022-11-12T01:18:52;33.17;;;26.25;;
5967;SDS011;3010;51.028;4.170;2022-11-12T01:21:18;28.63;;;22.90;;
5967;SDS011;3010;51.028;4.170;2022-11-12T01:23:45;37.07;;;25.40;;
5967;SDS011;3010;51.028;4.170;2022-11-12T01:26:13;37.97;;;26.47;;
5967;SDS011;3010;51.028;4.170;2022-11-12T01:28:40;39.83;;;25.97;;
5967;SDS011;3010;51.028;4.170;2022-11-12T01:31:12;32.60;;;22.97;;
5967;SDS011;3010;51.028;4.170;2022-11-12T01:33:43;33.13;;;23.73;;
5967;SDS011;3010;51.028;4.170;2022-11-12T01:36:09;30.93;;;23.70;;
5967;SDS011;3010;51.028;4.170;2022-11-12T01:38:36;29.90;;;22.47;;
5967;SDS011;3010;51.028;4.170;2022-11-12T01:41:02;27.53;;;21.50;;
5967;SDS011;3010;51.028;4.170;2022-11-12T01:43:28;30.27;;;21.50;;
5967;SDS011;3010;51.028;4.170;2022-11-12T01:45:55;26.87;;;19.77;;
5967;SDS011;3010;51.028;4.170;2022-11-12T01:48:29;24.97;;;19.17;;
5967;SDS011;3010;51.028;4.170;2022-11-12T01:50:57;22.90;;;18.17;;
5967;SDS011;3010;51.028;4.170;2022-11-12T01:53:24;23.50;;;17.67;;
5967;SDS011;3010;51.028;4.170;2022-11-12T01:55:50;26.40;;;23.30;;
5967;SDS011;3010;51.028;4.170;2022-11-12T01:58:17;29.45;;;24.80;;
5967;SDS011;3010;51.028;4.170;2022-11-12T02:00:43;21.77;;;18.33;;
5967;SDS011;3010;51.028;4.170;2022-11-12T02:03:21;23.03;;;18.50;;
5967;SDS011;3010;51.028;4.170;2022-11-12T02:05:42;23.47;;;18.00;;
5967;SDS011;3010;51.028;4.170;2022-11-12T02:08:09;23.03;;;17.87;;
5967;SDS011;3010;51.028;4.170;2022-11-12T02:10:37;25.55;;;22.35;;
5967;SDS011;3010;51.028;4.170;2022-11-12T02:13:02;24.73;;;19.73;;
5967;SDS011;3010;51.028;4.170;2022-11-12T02:15:47;23.87;;;17.87;;
5967;SDS011;3010;51.028;4.170;2022-11-12T02:18:13;21.33;;;17.17;;
5967;SDS011;3010;51.028;4.170;2022-11-12T02:20:40;21.87;;;15.90;;
5967;SDS011;3010;51.028;4.170;2022-11-12T02:23:07;23.03;;;16.60;;
5967;SDS011;3010;51.028;4.170;2022-11-12T02:25:33;26.37;;;17.57;;
5967;SDS011;3010;51.028;4.170;2022-11-12T02:28:00;21.80;;;17.07;;
5967;SDS011;3010;51.028;4.170;2022-11-12T02:30:34;22.50;;;17.17;;
5967;SDS011;3010;51.028;4.170;2022-11-12T02:32:59;22.67;;;16.93;;
5967;SDS011;3010;51.028;4.170;2022-11-12T02:35:25;24.50;;;18.13;;
5967;SDS011;3010;51.028;4.170;2022-11-12T02:37:52;22.13;;;17.27;;
5967;SDS011;3010;51.028;4.170;2022-11-12T02:40:18;26.37;;;21.62;;
5967;SDS011;3010;51.028;4.170;2022-11-12T02:42:45;33.22;;;22.95;;
5967;SDS011;3010;51.028;4.170;2022-11-12T02:45:12;21.57;;;17.70;;
5967;SDS011;3010;51.028;4.170;2022-11-12T02:47:38;24.55;;;21.60;;
5967;SDS011;3010;51.028;4.170;2022-11-12T02:50:05;20.27;;;17.23;;
5967;SDS011;3010;51.028;4.170;2022-11-12T02:52:31;23.17;;;16.90;;
5967;SDS011;3010;51.028;4.170;2022-11-12T02:54:58;19.93;;;16.17;;
5967;SDS011;3010;51.028;4.170;2022-11-12T02:57:25;19.10;;;16.27;;
5967;SDS011;3010;51.028;4.170;2022-11-12T02:59:51;22.63;;;15.83;;
5967;SDS011;3010;51.028;4.170;2022-11-12T03:02:18;20.90;;;16.27;;
5967;SDS011;3010;51.028;4.170;2022-11-12T03:04:44;22.27;;;17.47;;
5967;SDS011;3010;51.028;4.170;2022-11-12T03:07:11;23.20;;;16.87;;
5967;SDS011;3010;51.028;4.170;2022-11-12T03:09:37;24.97;;;17.93;;
5967;SDS011;3010;51.028;4.170;2022-11-12T03:12:04;26.03;;;17.83;;
5967;SDS011;3010;51.028;4.170;2022-11-12T03:14:31;25.57;;;18.20;;
5967;SDS011;3010;51.028;4.170;2022-11-12T03:16:57;21.87;;;16.67;;
5967;SDS011;3010;51.028;4.170;2022-11-12T03:19:24;24.00;;;18.17;;
5967;SDS011;3010;51.028;4.170;2022-11-12T03:21:50;25.60;;;18.47;;
5967;SDS011;3010;51.028;4.170;2022-11-12T03:24:17;22.10;;;17.13;;
5967;SDS011;3010;51.028;4.170;2022-11-12T03:26:44;23.87;;;17.33;;
5967;SDS011;3010;51.028;4.170;2022-11-12T03:29:10;28.48;;;23.77;;
5967;SDS011;3010;51.028;4.170;2022-11-12T03:31:37;24.50;;;19.27;;
5967;SDS011;3010;51.028;4.170;2022-11-12T03:34:03;28.43;;;19.13;;
5967;SDS011;3010;51.028;4.170;2022-11-12T03:36:30;22.10;;;17.57;;
5967;SDS011;3010;51.028;4.170;2022-11-12T03:38:57;26.27;;;18.40;;
5967;SDS011;3010;51.028;4.170;2022-11-12T03:41:23;24.47;;;18.00;;
5967;SDS011;3010;51.028;4.170;2022-11-12T03:43:50;26.07;;;18.50;;
5967;SDS011;3010;51.028;4.170;2022-11-12T03:46:16;28.92;;;22.90;;
5967;SDS011;3010;51.028;4.170;2022-11-12T03:48:43;24.53;;;18.90;;
5967;SDS011;3010;51.028;4.170;2022-11-12T03:51:09;27.85;;;21.73;;
5967;SDS011;3010;51.028;4.170;2022-11-12T03:53:36;25.23;;;18.40;;
5967;SDS011;3010;51.028;4.170;2022-11-12T03:56:03;24.60;;;18.93;;
5967;SDS011;3010;51.028;4.170;2022-11-12T03:58:29;27.93;;;19.13;;
5967;SDS011;3010;51.028;4.170;2022-11-12T04:00:56;26.57;;;17.70;;
5967;SDS011;3010;51.028;4.170;2022-11-12T04:03:22;27.80;;;18.07;;
5967;SDS011;3010;51.028;4.170;2022-11-12T04:05:49;26.53;;;17.83;;
5967;SDS011;3010;51.028;4.170;2022-11-12T04:08:34;26.00;;;18.97;;
5967;SDS011;3010;51.028;4.170;2022-11-12T04:11:01;24.67;;;18.47;;
5967;SDS011;3010;51.028;4.170;2022-11-12T04:13:33;25.50;;;18.43;;
5967;SDS011;3010;51.028;4.170;2022-11-12T04:16:10;31.37;;;19.67;;
5967;SDS011;3010;51.028;4.170;2022-11-12T04:18:54;25.67;;;18.80;;
5967;SDS011;3010;51.028;4.170;2022-11-12T04:21:40;27.17;;;19.03;;
5967;SDS011;3010;51.028;4.170;2022-11-12T04:24:27;25.30;;;18.93;;
5967;SDS011;3010;51.028;4.170;2022-11-12T04:27:21;22.73;;;18.13;;
5967;SDS011;3010;51.028;4.170;2022-11-12T04:29:49;24.90;;;19.10;;
5967;SDS011;3010;51.028;4.170;2022-11-12T04:32:35;27.93;;;19.90;;
5967;SDS011;3010;51.028;4.170;2022-11-12T04:35:00;26.70;;;20.33;;
5967;SDS011;3010;51.028;4.170;2022-11-12T04:37:28;29.33;;;20.87;;
5967;SDS011;3010;51.028;4.170;2022-11-12T04:39:54;25.87;;;19.97;;
5967;SDS011;3010;51.028;4.170;2022-11-12T04:42:20;27.00;;;19.53;;
5967;SDS011;3010;51.028;4.170;2022-11-12T04:45:07;28.40;;;19.90;;
5967;SDS011;3010;51.028;4.170;2022-11-12T04:47:39;27.87;;;19.70;;
5967;SDS011;3010;51.028;4.170;2022-11-12T04:50:05;28.80;;;20.50;;
5967;SDS011;3010;51.028;4.170;2022-11-12T04:52:31;31.63;;;20.33;;
5967;SDS011;3010;51.028;4.170;2022-11-12T04:54:58;25.27;;;20.30;;
5967;SDS011;3010;51.028;4.170;2022-11-12T04:57:24;26.90;;;20.27;;
5967;SDS011;3010;51.028;4.170;2022-11-12T04:59:51;29.37;;;19.83;;
5967;SDS011;3010;51.028;4.170;2022-11-12T05:02:17;28.37;;;20.33;;
5967;SDS011;3010;51.028;4.170;2022-11-12T05:04:44;25.67;;;19.40;;
5967;SDS011;3010;51.028;4.170;2022-11-12T05:07:10;29.90;;;20.70;;
5967;SDS011;3010;51.028;4.170;2022-11-12T05:09:37;28.50;;;20.03;;
5967;SDS011;3010;51.028;4.170;2022-11-12T05:12:04;24.97;;;19.87;;
5967;SDS011;3010;51.028;4.170;2022-11-12T05:14:30;28.07;;;20.40;;
5967;SDS011;3010;51.028;4.170;2022-11-12T05:16:57;26.90;;;20.07;;
5967;SDS011;3010;51.028;4.170;2022-11-12T05:19:23;28.03;;;20.03;;
5967;SDS011;3010;51.028;4.170;2022-11-12T05:21:50;26.23;;;20.43;;
5967;SDS011;3010;51.028;4.170;2022-11-12T05:24:33;24.27;;;19.17;;
5967;SDS011;3010;51.028;4.170;2022-11-12T05:27:05;25.63;;;20.13;;
5967;SDS011;3010;51.028;4.170;2022-11-12T05:29:31;26.47;;;21.70;;
5967;SDS011;3010;51.028;4.170;2022-11-12T05:31:57;26.73;;;20.77;;
5967;SDS011;3010;51.028;4.170;2022-11-12T05:34:24;29.43;;;22.03;;
5967;SDS011;3010;51.028;4.170;2022-11-12T05:36:51;28.87;;;21.40;;
5967;SDS011;3010;51.028;4.170;2022-11-12T05:39:17;27.77;;;21.73;;
5967;SDS011;3010;51.028;4.170;2022-11-12T05:41:44;29.70;;;22.20;;
5967;SDS011;3010;51.028;4.170;2022-11-12T05:44:10;31.93;;;21.80;;
5967;SDS011;3010;51.028;4.170;2022-11-12T05:46:37;31.60;;;22.23;;
5967;SDS011;3010;51.028;4.170;2022-11-12T05:49:04;33.08;;;28.55;;
5967;SDS011;3010;51.028;4.170;2022-11-12T05:51:30;30.37;;;23.83;;
5967;SDS011;3010;51.028;4.170;2022-11-12T05:53:57;30.80;;;22.57;;
5967;SDS011;3010;51.028;4.170;2022-11-12T05:56:23;27.67;;;21.80;;
5967;SDS011;3010;51.028;4.170;2022-11-12T05:58:50;31.48;;;26.55;;
5967;SDS011;3010;51.028;4.170;2022-11-12T06:01:16;30.43;;;22.10;;
5967;SDS011;3010;51.028;4.170;2022-11-12T06:03:43;33.60;;;27.40;;
5967;SDS011;3010;51.028;4.170;2022-11-12T06:06:10;26.10;;;21.87;;
5967;SDS011;3010;51.028;4.170;2022-11-12T06:08:36;31.12;;;26.33;;
5967;SDS011;3010;51.028;4.170;2022-11-12T06:11:03;30.07;;;22.90;;
5967;SDS011;3010;51.028;4.170;2022-11-12T06:13:29;30.02;;;25.45;;
5967;SDS011;3010;51.028;4.170;2022-11-12T06:15:56;27.73;;;21.40;;
5967;SDS011;3010;51.028;4.170;2022-11-12T06:18:23;31.20;;;25.77;;
5967;SDS011;3010;51.028;4.170;2022-11-12T06:20:49;27.83;;;20.53;;
5967;SDS011;3010;51.028;4.170;2022-11-12T06:23:34;29.30;;;24.33;;
5967;SDS011;3010;51.028;4.170;2022-11-12T06:26:01;24.57;;;19.80;;
5967;SDS011;3010;51.028;4.170;2022-11-12T06:28:27;29.17;;;24.75;;
5967;SDS011;3010;51.028;4.170;2022-11-12T06:30:54;25.13;;;19.60;;
5967;SDS011;3010;51.028;4.170;2022-11-12T06:33:20;26.23;;;18.90;;
5967;SDS011;3010;51.028;4.170;2022-11-12T06:35:47;24.00;;;18.07;;
5967;SDS011;3010;51.028;4.170;2022-11-12T06:38:13;23.63;;;18.77;;
5967;SDS011;3010;51.028;4.170;2022-11-12T06:40:40;24.33;;;17.60;;
5967;SDS011;3010;51.028;4.170;2022-11-12T06:43:06;23.70;;;17.30;;
5967;SDS011;3010;51.028;4.170;2022-11-12T06:45:33;24.27;;;17.60;;
5967;SDS011;3010;51.028;4.170;2022-11-12T06:48:00;23.93;;;17.20;;
5967;SDS011;3010;51.028;4.170;2022-11-12T06:50:26;21.43;;;17.37;;
5967;SDS011;3010;51.028;4.170;2022-11-12T06:52:56;22.53;;;17.10;;
5967;SDS011;3010;51.028;4.170;2022-11-12T06:55:19;21.47;;;17.23;;
5967;SDS011;3010;51.028;4.170;2022-11-12T06:57:49;22.50;;;17.40;;
5967;SDS011;3010;51.028;4.170;2022-11-12T07:00:13;22.40;;;17.47;;
5967;SDS011;3010;51.028;4.170;2022-11-12T07:02:41;22.37;;;17.33;;
5967;SDS011;3010;51.028;4.170;2022-11-12T07:05:08;22.87;;;16.80;;
5967;SDS011;3010;51.028;4.170;2022-11-12T07:07:34;28.50;;;22.05;;
5967;SDS011;3010;51.028;4.170;2022-11-12T07:10:01;33.10;;;20.30;;
5967;SDS011;3010;51.028;4.170;2022-11-12T07:12:27;26.77;;;17.87;;
5967;SDS011;3010;51.028;4.170;2022-11-12T07:14:54;26.63;;;19.10;;
5967;SDS011;3010;51.028;4.170;2022-11-12T07:17:21;28.27;;;19.13;;
5967;SDS011;3010;51.028;4.170;2022-11-12T07:19:47;26.73;;;19.73;;
5967;SDS011;3010;51.028;4.170;2022-11-12T07:22:14;33.38;;;25.00;;
5967;SDS011;3010;51.028;4.170;2022-11-12T07:24:40;29.20;;;21.73;;
5967;SDS011;3010;51.028;4.170;2022-11-12T07:27:07;30.58;;;24.90;;
5967;SDS011;3010;51.028;4.170;2022-11-12T07:29:33;29.10;;;20.77;;
5967;SDS011;3010;51.028;4.170;2022-11-12T07:32:00;31.62;;;25.98;;
5967;SDS011;3010;51.028;4.170;2022-11-12T07:34:27;30.10;;;22.20;;
5967;SDS011;3010;51.028;4.170;2022-11-12T07:36:53;30.70;;;23.60;;
5967;SDS011;3010;51.028;4.170;2022-11-12T07:39:20;35.63;;;24.83;;
5967;SDS011;3010;51.028;4.170;2022-11-12T07:41:46;40.60;;;28.43;;
5967;SDS011;3010;51.028;4.170;2022-11-12T07:44:13;40.60;;;27.93;;
5967;SDS011;3010;51.028;4.170;2022-11-12T07:46:40;42.00;;;29.33;;
5967;SDS011;3010;51.028;4.170;2022-11-12T07:49:06;34.87;;;25.50;;
5967;SDS011;3010;51.028;4.170;2022-11-12T07:51:33;30.27;;;22.73;;
5967;SDS011;3010;51.028;4.170;2022-11-12T07:53:59;33.60;;;24.97;;
5967;SDS011;3010;51.028;4.170;2022-11-12T07:56:26;32.67;;;24.53;;
5967;SDS011;3010;51.028;4.170;2022-11-12T07:58:53;37.30;;;27.27;;
5967;SDS011;3010;51.028;4.170;2022-11-12T08:01:29;41.83;;;29.53;;
5967;SDS011;3010;51.028;4.170;2022-11-12T08:04:02;41.10;;;28.67;;
5967;SDS011;3010;51.028;4.170;2022-11-12T08:06:28;43.40;;;32.00;;
5967;SDS011;3010;51.028;4.170;2022-11-12T08:08:54;50.30;;;40.80;;
5967;SDS011;3010;51.028;4.170;2022-11-12T08:11:21;37.93;;;28.63;;
5967;SDS011;3010;51.028;4.170;2022-11-12T08:13:47;34.40;;;28.33;;
5967;SDS011;3010;51.028;4.170;2022-11-12T08:16:14;28.53;;;21.87;;
5967;SDS011;3010;51.028;4.170;2022-11-12T08:18:40;28.13;;;21.00;;
5967;SDS011;3010;51.028;4.170;2022-11-12T08:21:09;46.77;;;33.17;;
5967;SDS011;3010;51.028;4.170;2022-11-12T08:23:33;37.03;;;29.60;;
5967;SDS011;3010;51.028;4.170;2022-11-12T08:26:00;29.93;;;23.57;;
5967;SDS011;3010;51.028;4.170;2022-11-12T08:28:27;29.60;;;23.80;;
5967;SDS011;3010;51.028;4.170;2022-11-12T08:30:53;38.20;;;29.73;;
5967;SDS011;3010;51.028;4.170;2022-11-12T08:33:20;43.70;;;33.83;;
5967;SDS011;3010;51.028;4.170;2022-11-12T08:35:46;41.85;;;33.70;;
5967;SDS011;3010;51.028;4.170;2022-11-12T08:38:13;28.93;;;23.47;;
5967;SDS011;3010;51.028;4.170;2022-11-12T08:40:40;32.23;;;23.10;;
5967;SDS011;3010;51.028;4.170;2022-11-12T08:43:07;34.50;;;26.17;;
5967;SDS011;3010;51.028;4.170;2022-11-12T08:45:34;32.37;;;22.37;;
5967;SDS011;3010;51.028;4.170;2022-11-12T08:48:00;29.70;;;21.47;;
5967;SDS011;3010;51.028;4.170;2022-11-12T08:50:28;29.23;;;21.93;;
5967;SDS011;3010;51.028;4.170;2022-11-12T08:53:02;28.93;;;20.50;;
5967;SDS011;3010;51.028;4.170;2022-11-12T08:55:30;23.50;;;19.67;;
5967;SDS011;3010;51.028;4.170;2022-11-12T08:57:56;28.60;;;19.87;;
5967;SDS011;3010;51.028;4.170;2022-11-12T09:00:23;28.17;;;21.20;;
5967;SDS011;3010;51.028;4.170;2022-11-12T09:02:50;30.60;;;22.47;;
5967;SDS011;3010;51.028;4.170;2022-11-12T09:05:16;32.53;;;21.47;;
5967;SDS011;3010;51.028;4.170;2022-11-12T09:07:43;33.27;;;22.07;;
5967;SDS011;3010;51.028;4.170;2022-11-12T09:10:09;30.23;;;21.60;;
5967;SDS011;3010;51.028;4.170;2022-11-12T09:12:36;27.17;;;20.37;;
5967;SDS011;3010;51.028;4.170;2022-11-12T09:15:03;33.13;;;26.95;;
5967;SDS011;3010;51.028;4.170;2022-11-12T09:17:32;28.40;;;22.80;;
5967;SDS011;3010;51.028;4.170;2022-11-12T09:19:56;31.23;;;21.87;;
5967;SDS011;3010;51.028;4.170;2022-11-12T09:22:22;27.53;;;21.50;;
5967;SDS011;3010;51.028;4.170;2022-11-12T09:24:49;26.03;;;19.33;;
5967;SDS011;3010;51.028;4.170;2022-11-12T09:27:15;26.17;;;19.47;;
5967;SDS011;3010;51.028;4.170;2022-11-12T09:29:42;25.83;;;19.17;;
5967;SDS011;3010;51.028;4.170;2022-11-12T09:32:09;25.20;;;18.60;;
5967;SDS011;3010;51.028;4.170;2022-11-12T09:34:35;25.13;;;18.93;;
5967;SDS011;3010;51.028;4.170;2022-11-12T09:37:02;26.43;;;19.80;;
5967;SDS011;3010;51.028;4.170;2022-11-12T09:39:28;23.10;;;18.20;;
5967;SDS011;3010;51.028;4.170;2022-11-12T09:41:55;23.57;;;17.80;;
5967;SDS011;3010;51.028;4.170;2022-11-12T09:44:22;20.57;;;17.07;;
5967;SDS011;3010;51.028;4.170;2022-11-12T09:49:18;19.27;;;16.70;;
5967;SDS011;3010;51.028;4.170;2022-11-12T09:51:51;19.93;;;16.57;;
5967;SDS011;3010;51.028;4.170;2022-11-12T09:54:22;19.33;;;15.90;;
5967;SDS011;3010;51.028;4.170;2022-11-12T09:56:49;20.12;;;18.00;;
5967;SDS011;3010;51.028;4.170;2022-11-12T09:59:15;17.70;;;15.17;;
5967;SDS011;3010;51.028;4.170;2022-11-12T10:01:56;18.03;;;13.30;;
5967;SDS011;3010;51.028;4.170;2022-11-12T10:09:58;14.90;;;13.40;;
5967;SDS011;3010;51.028;4.170;2022-11-12T10:12:59;13.00;;;11.67;;
5967;SDS011;3010;51.028;4.170;2022-11-12T10:15:31;13.93;;;11.77;;
5967;SDS011;3010;51.028;4.170;2022-11-12T10:18:28;14.60;;;12.43;;
5967;SDS011;3010;51.028;4.170;2022-11-12T10:20:58;15.93;;;11.87;;
5967;SDS011;3010;51.028;4.170;2022-11-12T10:23:26;13.43;;;11.73;;
5967;SDS011;3010;51.028;4.170;2022-11-12T10:25:56;15.65;;;13.93;;
5967;SDS011;3010;51.028;4.170;2022-11-12T10:28:26;13.17;;;11.87;;
5967;SDS011;3010;51.028;4.170;2022-11-12T10:30:51;12.57;;;10.70;;
5967;SDS011;3010;51.028;4.170;2022-11-12T10:33:17;12.13;;;10.93;;
5967;SDS011;3010;51.028;4.170;2022-11-12T10:35:43;14.10;;;10.33;;
5967;SDS011;3010;51.028;4.170;2022-11-12T10:38:14;11.23;;;9.73;;
5967;SDS011;3010;51.028;4.170;2022-11-12T10:40:38;11.37;;;10.03;;
5967;SDS011;3010;51.028;4.170;2022-11-12T10:43:19;11.13;;;10.10;;
5967;SDS011;3010;51.028;4.170;2022-11-12T10:45:30;11.80;;;10.07;;
5967;SDS011;3010;51.028;4.170;2022-11-12T10:47:56;10.93;;;9.80;;
5967;SDS011;3010;51.028;4.170;2022-11-12T10:50:38;11.03;;;9.93;;
5967;SDS011;3010;51.028;4.170;2022-11-12T10:53:03;11.17;;;10.10;;
5967;SDS011;3010;51.028;4.170;2022-11-12T10:55:29;12.43;;;11.18;;
5967;SDS011;3010;51.028;4.170;2022-11-12T11:00:37;24.83;;;12.77;;
5967;SDS011;3010;51.028;4.170;2022-11-12T11:03:14;12.20;;;9.73;;
5967;SDS011;3010;51.028;4.170;2022-11-12T11:05:58;16.30;;;10.53;;
5967;SDS011;3010;51.028;4.170;2022-11-12T11:08:33;10.87;;;9.77;;
5967;SDS011;3010;51.028;4.170;2022-11-12T11:11:21;11.07;;;9.90;;
5967;SDS011;3010;51.028;4.170;2022-11-12T11:13:47;10.23;;;9.40;;
5967;SDS011;3010;51.028;4.170;2022-11-12T11:16:14;10.43;;;9.33;;
5967;SDS011;3010;51.028;4.170;2022-11-12T11:18:40;10.63;;;9.53;;
5967;SDS011;3010;51.028;4.170;2022-11-12T11:21:29;12.47;;;11.27;;
5967;SDS011;3010;51.028;4.170;2022-11-12T11:40:50;10.63;;;9.57;;
5967;SDS011;3010;51.028;4.170;2022-11-12T11:43:28;10.40;;;9.60;;
5967;SDS011;3010;51.028;4.170;2022-11-12T11:46:13;10.00;;;9.00;;
5967;SDS011;3010;51.028;4.170;2022-11-12T11:49:23;10.03;;;9.10;;
5967;SDS011;3010;51.028;4.170;2022-11-12T12:01:15;11.47;;;9.40;;
5967;SDS011;3010;51.028;4.170;2022-11-12T12:04:13;9.67;;;8.77;;
5967;SDS011;3010;51.028;4.170;2022-11-12T12:09:50;10.25;;;9.30;;
5967;SDS011;3010;51.028;4.170;2022-11-12T12:20:53;8.83;;;7.93;;
5967;SDS011;3010;51.028;4.170;2022-11-12T12:26:02;9.23;;;8.33;;
5967;SDS011;3010;51.028;4.170;2022-11-12T12:31:03;9.37;;;8.37;;
5967;SDS011;3010;51.028;4.170;2022-11-12T12:33:28;9.13;;;8.23;;
5967;SDS011;3010;51.028;4.170;2022-11-12T12:41:15;9.97;;;9.07;;
5967;SDS011;3010;51.028;4.170;2022-11-12T12:43:56;9.60;;;8.77;;
5967;SDS011;3010;51.028;4.170;2022-11-12T12:46:22;9.52;;;8.73;;
5967;SDS011;3010;51.028;4.170;2022-11-12T12:48:48;9.60;;;8.80;;
5967;SDS011;3010;51.028;4.170;2022-11-12T12:51:15;11.13;;;9.00;;
5967;SDS011;3010;51.028;4.170;2022-11-12T12:53:41;9.50;;;8.60;;
5967;SDS011;3010;51.028;4.170;2022-11-12T12:58:44;11.67;;;9.43;;
5967;SDS011;3010;51.028;4.170;2022-11-12T13:03:52;10.20;;;8.30;;
5967;SDS011;3010;51.028;4.170;2022-11-12T13:19:37;8.67;;;7.97;;
5967;SDS011;3010;51.028;4.170;2022-11-12T13:32:40;7.90;;;7.20;;
5967;SDS011;3010;51.028;4.170;2022-11-12T13:37:57;8.90;;;8.10;;
5967;SDS011;3010;51.028;4.170;2022-11-12T13:43:02;8.43;;;7.67;;
5967;SDS011;3010;51.028;4.170;2022-11-12T13:50:57;7.90;;;7.30;;
5967;SDS011;3010;51.028;4.170;2022-11-12T13:53:24;9.27;;;8.53;;
5967;SDS011;3010;51.028;4.170;2022-11-12T13:55:50;7.93;;;7.33;;
5967;SDS011;3010;51.028;4.170;2022-11-12T13:58:19;7.53;;;6.90;;
5967;SDS011;3010;51.028;4.170;2022-11-12T14:00:49;6.83;;;6.33;;
5967;SDS011;3010;51.028;4.170;2022-11-12T14:03:13;7.57;;;6.97;;
5967;SDS011;3010;51.028;4.170;2022-11-12T14:05:36;7.17;;;6.67;;
5967;SDS011;3010;51.028;4.170;2022-11-12T14:13:43;7.17;;;6.60;;
5967;SDS011;3010;51.028;4.170;2022-11-12T14:16:43;7.90;;;7.30;;
5967;SDS011;3010;51.028;4.170;2022-11-12T14:22:22;7.50;;;6.83;;
5967;SDS011;3010;51.028;4.170;2022-11-12T14:24:51;8.27;;;7.60;;
5967;SDS011;3010;51.028;4.170;2022-11-12T14:27:36;8.37;;;7.60;;
5967;SDS011;3010;51.028;4.170;2022-11-12T14:29:47;7.53;;;6.93;;
5967;SDS011;3010;51.028;4.170;2022-11-12T14:32:14;8.10;;;7.50;;
5967;SDS011;3010;51.028;4.170;2022-11-12T14:34:40;8.03;;;7.23;;
5967;SDS011;3010;51.028;4.170;2022-11-12T14:37:09;8.83;;;7.67;;
5967;SDS011;3010;51.028;4.170;2022-11-12T14:39:36;8.60;;;7.70;;
5967;SDS011;3010;51.028;4.170;2022-11-12T14:42:00;8.20;;;7.60;;
5967;SDS011;3010;51.028;4.170;2022-11-12T14:44:33;7.80;;;7.10;;
5967;SDS011;3010;51.028;4.170;2022-11-12T14:46:59;6.07;;;5.57;;
5967;SDS011;3010;51.028;4.170;2022-11-12T14:49:31;6.33;;;5.83;;
5967;SDS011;3010;51.028;4.170;2022-11-12T14:52:06;6.77;;;6.27;;
5967;SDS011;3010;51.028;4.170;2022-11-12T14:54:33;8.00;;;6.83;;
5967;SDS011;3010;51.028;4.170;2022-11-12T14:56:58;7.30;;;6.53;;
5967;SDS011;3010;51.028;4.170;2022-11-12T14:59:24;7.27;;;6.77;;
5967;SDS011;3010;51.028;4.170;2022-11-12T15:02:03;7.77;;;7.07;;
5967;SDS011;3010;51.028;4.170;2022-11-12T15:04:42;7.77;;;7.07;;
5967;SDS011;3010;51.028;4.170;2022-11-12T15:07:24;8.30;;;7.60;;
5967;SDS011;3010;51.028;4.170;2022-11-12T15:09:55;7.40;;;6.90;;
5967;SDS011;3010;51.028;4.170;2022-11-12T15:12:23;7.53;;;7.00;;
5967;SDS011;3010;51.028;4.170;2022-11-12T15:14:51;8.53;;;7.70;;
5967;SDS011;3010;51.028;4.170;2022-11-12T15:17:33;8.23;;;7.60;;
5967;SDS011;3010;51.028;4.170;2022-11-12T15:20:00;8.07;;;7.30;;
5967;SDS011;3010;51.028;4.170;2022-11-12T15:22:29;8.52;;;7.75;;
5967;SDS011;3010;51.028;4.170;2022-11-12T15:24:56;7.67;;;6.90;;
5967;SDS011;3010;51.028;4.170;2022-11-12T15:27:26;7.63;;;6.97;;
5967;SDS011;3010;51.028;4.170;2022-11-12T15:29:53;9.00;;;7.00;;
5967;SDS011;3010;51.028;4.170;2022-11-12T15:34:45;8.57;;;7.20;;
5967;SDS011;3010;51.028;4.170;2022-11-12T15:39:47;9.13;;;7.73;;
5967;SDS011;3010;51.028;4.170;2022-11-12T15:44:40;8.63;;;7.83;;
5967;SDS011;3010;51.028;4.170;2022-11-12T15:47:07;8.97;;;8.17;;
5967;SDS011;3010;51.028;4.170;2022-11-12T15:49:33;8.90;;;8.10;;
5967;SDS011;3010;51.028;4.170;2022-11-12T15:52:00;10.43;;;7.70;;
5967;SDS011;3010;51.028;4.170;2022-11-12T15:54:26;10.13;;;7.87;;
5967;SDS011;3010;51.028;4.170;2022-11-12T15:56:53;9.10;;;8.13;;
5967;SDS011;3010;51.028;4.170;2022-11-12T15:59:19;8.57;;;7.83;;
5967;SDS011;3010;51.028;4.170;2022-11-12T16:01:46;9.13;;;8.27;;
5967;SDS011;3010;51.028;4.170;2022-11-12T16:04:13;8.70;;;7.90;;
5967;SDS011;3010;51.028;4.170;2022-11-12T16:06:39;9.23;;;8.20;;
5967;SDS011;3010;51.028;4.170;2022-11-12T16:09:06;9.70;;;8.83;;
5967;SDS011;3010;51.028;4.170;2022-11-12T16:11:32;11.50;;;9.40;;
5967;SDS011;3010;51.028;4.170;2022-11-12T16:14:06;10.37;;;9.03;;
5967;SDS011;3010;51.028;4.170;2022-11-12T16:16:32;9.23;;;8.43;;
5967;SDS011;3010;51.028;4.170;2022-11-12T16:18:58;10.00;;;8.90;;
5967;SDS011;3010;51.028;4.170;2022-11-12T16:21:25;12.37;;;8.40;;
5967;SDS011;3010;51.028;4.170;2022-11-12T16:23:51;9.27;;;8.37;;
5967;SDS011;3010;51.028;4.170;2022-11-12T16:26:22;13.77;;;10.77;;
5967;SDS011;3010;51.028;4.170;2022-11-12T16:28:44;13.87;;;12.33;;
5967;SDS011;3010;51.028;4.170;2022-11-12T16:31:11;11.40;;;10.23;;
5967;SDS011;3010;51.028;4.170;2022-11-12T16:33:38;11.53;;;10.33;;
5967;SDS011;3010;51.028;4.170;2022-11-12T16:36:10;13.47;;;11.07;;
5967;SDS011;3010;51.028;4.170;2022-11-12T16:38:31;11.80;;;10.60;;
5967;SDS011;3010;51.028;4.170;2022-11-12T16:40:57;11.80;;;10.60;;
5967;SDS011;3010;51.028;4.170;2022-11-12T16:43:24;16.07;;;11.50;;
5967;SDS011;3010;51.028;4.170;2022-11-12T16:45:51;14.40;;;10.97;;
5967;SDS011;3010;51.028;4.170;2022-11-12T16:48:18;16.47;;;11.73;;
5967;SDS011;3010;51.028;4.170;2022-11-12T16:50:44;13.13;;;11.40;;
5967;SDS011;3010;51.028;4.170;2022-11-12T16:53:10;12.73;;;11.13;;
5967;SDS011;3010;51.028;4.170;2022-11-12T16:55:37;19.53;;;14.70;;